Time;durP1;ratioP1;P1;durP2;ratioP2;P2;SDS_P1;SDS_P2;PMS_P1;PMS_P2;Temp;Humidity;BMP_temperature;BMP_pressure;BME280_temperature;BME280_humidity;BME280_pressure;Samples;Min_cycle;Max_cycle;Signal;HPM_P1;HPM_P2
2022/10/29 00:02:14;;;;;;;5.32;2.30;;;;;;;;;;5035436;28;92440;-77
2022/10/29 00:04:40;;;;;;;3.28;2.42;;;;;;;;;;5035009;28;93419;-77
2022/10/29 00:07:06;;;;;;;4.72;2.88;;;;;;;;;;5034857;28;92532;-77
2022/10/29 00:09:34;;;;;;;4.70;2.30;;;;;;;;;;5035094;28;93151;-77
2022/10/29 00:12:00;;;;;;;2.95;1.80;;;;;;;;;;5035431;28;93340;-77
2022/10/29 00:14:27;;;;;;;5.15;2.45;;;;;;;;;;5035485;28;91643;-77
2022/10/29 00:16:55;;;;;;;9.93;2.72;;;;;;;;;;5017470;28;92404;-77
2022/10/29 00:19:21;;;;;;;4.28;2.13;;;;;;;;;;5037895;28;93470;-77
2022/10/29 00:21:50;;;;;;;5.93;2.03;;;;;;;;;;5033648;28;94783;-77
2022/10/29 00:24:17;;;;;;;7.45;2.50;;;;;;;;;;5034904;28;93369;-77
2022/10/29 00:26:43;;;;;;;4.95;2.47;;;;;;;;;;5017376;28;92503;-77
2022/10/29 00:29:09;;;;;;;2.55;2.05;;;;;;;;;;5035372;28;93134;-77
2022/10/29 00:31:35;;;;;;;3.22;2.00;;;;;;;;;;5035098;28;93457;-77
2022/10/29 00:34:02;;;;;;;3.25;2.20;;;;;;;;;;5034898;28;92497;-77
2022/10/29 00:36:29;;;;;;;3.58;2.10;;;;;;;;;;5035247;28;96495;-77
2022/10/29 00:38:58;;;;;;;4.38;2.15;;;;;;;;;;5035396;28;92984;-77
2022/10/29 00:41:26;;;;;;;3.35;2.03;;;;;;;;;;5038785;28;92446;-77
2022/10/29 00:44:11;;;;;;;6.03;2.20;;;;;;;;;;5035056;28;92369;-77
2022/10/29 00:46:39;;;;;;;3.88;1.95;;;;;;;;;;5032851;28;94818;-77
2022/10/29 00:49:06;;;;;;;2.92;2.08;;;;;;;;;;5034991;28;95892;-77
2022/10/29 00:51:33;;;;;;;3.08;2.10;;;;;;;;;;5034780;28;94772;-77
2022/10/29 00:54:03;;;;;;;3.50;2.20;;;;;;;;;;5017139;28;92527;-77
2022/10/29 00:56:31;;;;;;;4.20;1.73;;;;;;;;;;5034410;28;93244;-77
2022/10/29 00:58:57;;;;;;;3.05;1.80;;;;;;;;;;5034288;28;93410;-77
2022/10/29 01:01:24;;;;;;;3.35;2.10;;;;;;;;;;5016992;28;92542;-77
2022/10/29 01:03:51;;;;;;;2.45;1.70;;;;;;;;;;5038112;28;93140;-77
2022/10/29 01:06:18;;;;;;;3.92;2.20;;;;;;;;;;5034431;28;92419;-77
2022/10/29 01:08:44;;;;;;;2.42;1.95;;;;;;;;;;5034153;28;93459;-77
2022/10/29 01:11:31;;;;;;;5.13;2.10;;;;;;;;;;5032614;28;95828;-77
2022/10/29 01:14:03;;;;;;;3.53;2.10;;;;;;;;;;5034503;28;92495;-77
2022/10/29 01:16:43;;;;;;;3.15;1.73;;;;;;;;;;5034741;28;95944;-77
2022/10/29 01:19:14;;;;;;;3.97;2.13;;;;;;;;;;5034556;28;93496;-77
2022/10/29 01:21:43;;;;;;;2.55;1.80;;;;;;;;;;5034243;28;92537;-77
2022/10/29 01:24:21;;;;;;;3.53;1.83;;;;;;;;;;5016866;28;93109;-77
2022/10/29 01:27:07;;;;;;;3.25;1.92;;;;;;;;;;5037954;28;96231;-77
2022/10/29 01:29:48;;;;;;;5.65;2.10;;;;;;;;;;5034783;28;93067;-77
2022/10/29 01:32:28;;;;;;;3.65;1.83;;;;;;;;;;5034270;28;93748;-77
2022/10/29 01:34:54;;;;;;;;;;;;;;;;;;5016997;28;92451;-77
2022/10/29 01:37:40;;;;;;;3.95;1.67;;;;;;;;;;5016107;28;122609;-77
2022/10/29 01:40:14;;;;;;;3.25;1.70;;;;;;;;;;5033887;28;93813;-77
2022/10/29 01:42:48;;;;;;;2.97;1.70;;;;;;;;;;5016353;28;92457;-77
2022/10/29 01:45:20;;;;;;;5.07;2.03;;;;;;;;;;5034479;28;95099;-77
2022/10/29 01:47:49;;;;;;;4.35;2.03;;;;;;;;;;5034030;28;93758;-77
2022/10/29 01:50:18;;;;;;;4.17;2.00;;;;;;;;;;5037362;28;92405;-77
2022/10/29 01:52:45;;;;;;;2.38;1.50;;;;;;;;;;5034390;28;94430;-77
2022/10/29 01:55:16;;;;;;;3.15;1.80;;;;;;;;;;5033983;28;91851;-77
2022/10/29 01:57:42;;;;;;;;;;;;;;;;;;5034769;28;92578;-77
2022/10/29 02:00:13;;;;;;;4.93;1.98;;;;;;;;;;5034563;28;124199;-77
2022/10/29 02:02:56;;;;;;;3.20;1.88;;;;;;;;;;5032409;28;94770;-77
2022/10/29 02:05:27;;;;;;;3.60;1.90;;;;;;;;;;5033644;28;95649;-77
2022/10/29 02:08:09;;;;;;;2.15;1.58;;;;;;;;;;5033360;28;93541;-77
2022/10/29 02:10:39;;;;;;;4.78;1.42;;;;;;;;;;5037053;28;92407;-77
2022/10/29 02:13:06;;;;;;;3.80;1.73;;;;;;;;;;5033587;28;93405;-77
2022/10/29 02:15:37;;;;;;;5.25;2.03;;;;;;;;;;5033253;28;92552;-77
2022/10/29 02:18:05;;;;;;;3.17;1.63;;;;;;;;;;5033497;28;93024;-77
2022/10/29 02:20:31;;;;;;;4.80;1.65;;;;;;;;;;5034702;27;92684;-77
2022/10/29 02:22:58;;;;;;;3.05;1.60;;;;;;;;;;5037494;28;92472;-77
2022/10/29 02:25:25;;;;;;;3.17;1.65;;;;;;;;;;5036969;28;93107;-77
2022/10/29 02:27:51;;;;;;;2.25;1.60;;;;;;;;;;5035303;28;96002;-77
2022/10/29 02:30:18;;;;;;;2.95;1.55;;;;;;;;;;5019140;28;92948;-77
2022/10/29 02:32:45;;;;;;;4.10;1.83;;;;;;;;;;5040171;28;93204;-77
2022/10/29 02:35:11;;;;;;;3.78;1.75;;;;;;;;;;5036952;28;92448;-77
2022/10/29 02:37:37;;;;;;;1.67;1.30;;;;;;;;;;5037673;28;93195;-77
2022/10/29 02:40:04;;;;;;;2.67;1.58;;;;;;;;;;5036634;28;93432;-77
2022/10/29 02:42:30;;;;;;;4.95;2.03;;;;;;;;;;5036939;28;92465;-77
2022/10/29 02:44:56;;;;;;;2.92;1.73;;;;;;;;;;5037239;28;93133;-77
2022/10/29 02:47:22;;;;;;;3.47;1.65;;;;;;;;;;5036121;28;93395;-77
2022/10/29 02:49:49;;;;;;;5.03;2.20;;;;;;;;;;5036932;28;92399;-77
2022/10/29 02:52:15;;;;;;;2.97;1.40;;;;;;;;;;5034713;28;94892;-77
2022/10/29 02:54:41;;;;;;;4.57;1.67;;;;;;;;;;5039639;28;93440;-77
2022/10/29 02:57:08;;;;;;;3.60;1.80;;;;;;;;;;5036404;28;93255;-77
2022/10/29 02:59:34;;;;;;;3.42;1.80;;;;;;;;;;5036333;28;92318;-77
2022/10/29 03:02:01;;;;;;;5.30;2.10;;;;;;;;;;5036334;28;92446;-77
2022/10/29 03:04:27;;;;;;;3.85;1.88;;;;;;;;;;5036012;28;92761;-77
2022/10/29 03:06:54;;;;;;;2.97;1.88;;;;;;;;;;5034749;28;93343;-77
2022/10/29 03:09:20;;;;;;;4.40;1.80;;;;;;;;;;5036665;28;91668;-77
2022/10/29 03:11:46;;;;;;;2.60;1.70;;;;;;;;;;5036746;28;93419;-77
2022/10/29 03:14:13;;;;;;;2.83;1.73;;;;;;;;;;5035722;28;93465;-77
2022/10/29 03:16:39;;;;;;;2.85;1.95;;;;;;;;;;5037426;28;94934;-77
2022/10/29 03:19:05;;;;;;;3.67;1.98;;;;;;;;;;5035798;28;93339;-77
2022/10/29 03:21:31;;;;;;;3.97;1.70;;;;;;;;;;5036122;28;92461;-77
2022/10/29 03:23:58;;;;;;;5.03;1.70;;;;;;;;;;5036496;28;93132;-77
2022/10/29 03:26:24;;;;;;;5.95;1.70;;;;;;;;;;5036034;28;93280;-77
2022/10/29 03:28:51;;;;;;;5.70;1.90;;;;;;;;;;5036028;28;92443;-77
2022/10/29 03:31:17;;;;;;;3.25;1.73;;;;;;;;;;5035420;27;93142;-77
2022/10/29 03:33:43;;;;;;;4.72;1.95;;;;;;;;;;5036385;28;93009;-77
2022/10/29 03:36:09;;;;;;;3.53;1.80;;;;;;;;;;5036028;28;92453;-77
2022/10/29 03:38:36;;;;;;;2.15;1.33;;;;;;;;;;5039152;28;93174;-77
2022/10/29 03:41:07;;;;;;;3.15;1.95;;;;;;;;;;5034252;28;94863;-77
2022/10/29 03:43:34;;;;;;;3.30;1.70;;;;;;;;;;5035788;28;95684;-77
2022/10/29 03:46:01;;;;;;;2.88;1.55;;;;;;;;;;5035067;28;93684;-77
2022/10/29 03:48:27;;;;;;;3.38;1.90;;;;;;;;;;5035874;28;92504;-77
2022/10/29 03:50:54;;;;;;;3.08;1.90;;;;;;;;;;5036287;28;95197;-77
2022/10/29 03:53:21;;;;;;;6.55;2.22;;;;;;;;;;5036204;28;94002;-77
2022/10/29 03:55:48;;;;;;;5.55;2.47;;;;;;;;;;5035535;28;92459;-77
2022/10/29 03:58:15;;;;;;;3.67;1.95;;;;;;;;;;5039356;28;95371;-77
2022/10/29 04:00:41;;;;;;;1.92;1.50;;;;;;;;;;5036281;28;92308;-77
2022/10/29 04:03:07;;;;;;;2.22;1.88;;;;;;;;;;5035571;28;94139;-77
2022/10/29 04:05:34;;;;;;;2.38;1.52;;;;;;;;;;5015969;28;95744;-77
2022/10/29 04:08:00;;;;;;;3.90;1.50;;;;;;;;;;5035645;28;92529;-77
2022/10/29 04:10:26;;;;;;;2.95;1.90;;;;;;;;;;5035245;28;93189;-77
2022/10/29 04:12:52;;;;;;;3.72;2.05;;;;;;;;;;5034819;28;93433;-77
2022/10/29 04:15:19;;;;;;;3.55;1.60;;;;;;;;;;5035280;28;92401;-77
2022/10/29 04:17:48;;;;;;;2.55;1.73;;;;;;;;;;5035313;28;93544;-77
2022/10/29 04:20:14;;;;;;;1.83;1.70;;;;;;;;;;5020928;28;93403;-77
2022/10/29 04:23:00;;;;;;;4.43;1.52;;;;;;;;;;5035568;28;92754;-77
2022/10/29 04:25:54;;;;;;;2.13;1.60;;;;;;;;;;5020318;28;94940;-77
2022/10/29 04:28:41;;;;;;;3.42;1.95;;;;;;;;;;5035541;28;92355;-78
2022/10/29 04:31:10;;;;;;;2.30;1.63;;;;;;;;;;5033904;28;95027;-77
2022/10/29 04:33:36;;;;;;;2.97;1.88;;;;;;;;;;5017070;28;93433;-77
2022/10/29 04:36:03;;;;;;;2.75;1.73;;;;;;;;;;5035237;28;92462;-77
2022/10/29 04:38:29;;;;;;;2.50;1.65;;;;;;;;;;5035708;28;95603;-77
2022/10/29 04:40:59;;;;;;;1.90;1.42;;;;;;;;;;5035307;28;94138;-77
2022/10/29 04:43:26;;;;;;;3.75;1.58;;;;;;;;;;5036818;27;92506;-77
2022/10/29 04:45:53;;;;;;;1.63;1.48;;;;;;;;;;5034036;28;93516;-77
2022/10/29 04:48:19;;;;;;;1.55;1.30;;;;;;;;;;5036031;28;91795;-77
2022/10/29 04:50:46;;;;;;;2.80;1.70;;;;;;;;;;5034765;28;92517;-77
2022/10/29 04:53:12;;;;;;;3.15;1.90;;;;;;;;;;5034551;28;93407;-77
2022/10/29 04:55:39;;;;;;;1.80;1.50;;;;;;;;;;5033675;28;94947;-77
2022/10/29 04:58:05;;;;;;;2.47;1.42;;;;;;;;;;5034661;28;95550;-77
2022/10/29 05:00:32;;;;;;;1.48;1.33;;;;;;;;;;5016636;28;93810;-77
2022/10/29 05:02:58;;;;;;;2.88;1.40;;;;;;;;;;5034138;28;92425;-77
2022/10/29 05:05:26;;;;;;;3.13;1.52;;;;;;;;;;5037696;28;93129;-77
2022/10/29 05:07:56;;;;;;;1.88;1.52;;;;;;;;;;5033823;28;92629;-77
2022/10/29 05:10:24;;;;;;;2.58;1.60;;;;;;;;;;5034499;28;93128;-77
2022/10/29 05:12:59;;;;;;;1.70;1.35;;;;;;;;;;5034993;28;92835;-77
2022/10/29 05:15:26;;;;;;;1.90;1.50;;;;;;;;;;5035000;28;92361;-77
2022/10/29 05:17:53;;;;;;;1.85;1.40;;;;;;;;;;5034198;28;92681;-77
2022/10/29 05:20:19;;;;;;;1.40;1.23;;;;;;;;;;5032389;28;96087;-77
2022/10/29 05:22:46;;;;;;;1.90;1.30;;;;;;;;;;5034443;28;92417;-77
2022/10/29 05:25:12;;;;;;;4.07;1.73;;;;;;;;;;5034498;28;93076;-77
2022/10/29 05:27:39;;;;;;;2.28;1.35;;;;;;;;;;5019493;28;94424;-77
2022/10/29 05:30:05;;;;;;;1.50;1.30;;;;;;;;;;5034533;28;93323;-77
2022/10/29 05:32:32;;;;;;;2.30;1.30;;;;;;;;;;5034349;28;93803;-77
2022/10/29 05:34:58;;;;;;;2.25;1.30;;;;;;;;;;5034373;28;92438;-77
2022/10/29 05:37:26;;;;;;;2.92;1.45;;;;;;;;;;5017098;28;93113;-77
2022/10/29 05:39:53;;;;;;;1.48;1.10;;;;;;;;;;5034377;28;96454;-77
2022/10/29 05:42:19;;;;;;;1.83;1.45;;;;;;;;;;5034705;28;92338;-77
2022/10/29 05:44:45;;;;;;;1.60;1.30;;;;;;;;;;5032960;28;94725;-77
2022/10/29 05:47:11;;;;;;;2.53;1.70;;;;;;;;;;5015978;28;93727;-77
2022/10/29 05:49:38;;;;;;;1.30;1.20;;;;;;;;;;5037203;28;92466;-77
2022/10/29 05:52:04;;;;;;;1.92;1.35;;;;;;;;;;5034665;28;93132;-77
2022/10/29 05:54:30;;;;;;;1.50;1.40;;;;;;;;;;5017009;28;92509;-77
2022/10/29 05:56:57;;;;;;;1.27;1.08;;;;;;;;;;5037880;28;94262;-77
2022/10/29 05:59:23;;;;;;;1.73;1.48;;;;;;;;;;5037934;28;93028;-77
2022/10/29 06:01:54;;;;;;;1.55;1.25;;;;;;;;;;5038177;28;91732;-77
2022/10/29 06:04:21;;;;;;;1.73;1.42;;;;;;;;;;5037217;28;92724;-77
2022/10/29 06:06:47;;;;;;;2.85;1.42;;;;;;;;;;5036671;28;93488;-77
2022/10/29 06:09:13;;;;;;;1.60;1.05;;;;;;;;;;5038995;28;94836;-77
2022/10/29 06:11:40;;;;;;;1.63;1.20;;;;;;;;;;5019404;28;93495;-77
2022/10/29 06:14:06;;;;;;;1.65;1.38;;;;;;;;;;5037636;28;92446;-77
2022/10/29 06:16:32;;;;;;;1.55;1.35;;;;;;;;;;5019145;28;93410;-77
2022/10/29 06:18:59;;;;;;;2.20;1.30;;;;;;;;;;5037060;28;94829;-77
2022/10/29 06:21:25;;;;;;;4.57;1.38;;;;;;;;;;5019253;28;92599;-77
2022/10/29 06:23:53;;;;;;;1.35;1.20;;;;;;;;;;5037042;28;93151;-77
2022/10/29 06:26:19;;;;;;;1.60;1.40;;;;;;;;;;5037431;28;93061;-77
2022/10/29 06:28:45;;;;;;;2.17;1.50;;;;;;;;;;5037200;28;92471;-77
2022/10/29 06:31:11;;;;;;;3.70;1.90;;;;;;;;;;5040381;28;94125;-77
2022/10/29 06:33:38;;;;;;;1.30;1.20;;;;;;;;;;5035825;28;94802;-77
2022/10/29 06:36:04;;;;;;;1.58;1.20;;;;;;;;;;5037721;28;95630;-77
2022/10/29 06:38:30;;;;;;;1.52;1.23;;;;;;;;;;5036844;28;93988;-77
2022/10/29 06:40:57;;;;;;;2.35;1.40;;;;;;;;;;5036972;28;92461;-77
2022/10/29 06:43:23;;;;;;;1.63;1.27;;;;;;;;;;5036894;28;93257;-77
2022/10/29 06:45:50;;;;;;;1.20;1.10;;;;;;;;;;5036748;28;94337;-77
2022/10/29 06:48:16;;;;;;;2.38;1.33;;;;;;;;;;5036735;28;92559;-77
2022/10/29 06:50:47;;;;;;;1.27;1.17;;;;;;;;;;5037260;28;93095;-77
2022/10/29 06:53:14;;;;;;;2.17;1.35;;;;;;;;;;5021902;28;93436;-77
2022/10/29 06:55:40;;;;;;;1.50;1.30;;;;;;;;;;5036832;28;93117;-77
2022/10/29 06:58:10;;;;;;;1.50;1.35;;;;;;;;;;5034182;28;95743;-77
2022/10/29 07:00:36;;;;;;;2.10;1.38;;;;;;;;;;5036480;28;92822;-77
2022/10/29 07:03:03;;;;;;;1.70;1.20;;;;;;;;;;5036172;28;93382;-77
2022/10/29 07:05:30;;;;;;;2.95;1.13;;;;;;;;;;5018853;28;95904;-77
2022/10/29 07:07:58;;;;;;;3.17;1.45;;;;;;;;;;5035494;28;92438;-77
2022/10/29 07:10:25;;;;;;;2.55;1.25;;;;;;;;;;5036312;28;93280;-77
2022/10/29 07:12:52;;;;;;;2.50;1.60;;;;;;;;;;5036338;28;93410;-77
2022/10/29 07:15:18;;;;;;;2.38;1.30;;;;;;;;;;5039623;28;91710;-77
2022/10/29 07:18:01;;;;;;;1.50;1.40;;;;;;;;;;5017934;28;93457;-77
2022/10/29 07:20:28;;;;;;;3.13;1.50;;;;;;;;;;5035962;28;92516;-77
2022/10/29 07:22:56;;;;;;;3.22;1.67;;;;;;;;;;5016967;28;94735;-77
2022/10/29 07:25:23;;;;;;;2.45;1.23;;;;;;;;;;5036019;28;93579;-77
2022/10/29 07:27:49;;;;;;;1.83;1.60;;;;;;;;;;5036188;28;92666;-77
2022/10/29 07:30:16;;;;;;;1.58;1.40;;;;;;;;;;5036435;28;94030;-77
2022/10/29 07:32:42;;;;;;;2.90;1.40;;;;;;;;;;5036116;28;94453;-77
2022/10/29 07:35:09;;;;;;;1.60;1.50;;;;;;;;;;5018183;28;92484;-77
2022/10/29 07:37:35;;;;;;;1.65;1.20;;;;;;;;;;5039528;28;93515;-77
2022/10/29 07:40:02;;;;;;;1.65;1.50;;;;;;;;;;5036421;28;91683;-77
2022/10/29 07:42:28;;;;;;;1.30;1.20;;;;;;;;;;5035918;28;92411;-77
2022/10/29 07:44:54;;;;;;;1.85;1.30;;;;;;;;;;5036175;28;94413;-77
2022/10/29 07:47:21;;;;;;;1.85;1.30;;;;;;;;;;5033997;28;94865;-77
2022/10/29 07:49:47;;;;;;;4.47;1.50;;;;;;;;;;5035580;28;95568;-77
2022/10/29 07:52:13;;;;;;;4.53;1.48;;;;;;;;;;5035967;28;94674;-77
2022/10/29 07:54:40;;;;;;;1.45;1.15;;;;;;;;;;5036341;28;92403;-77
2022/10/29 07:57:06;;;;;;;1.45;1.35;;;;;;;;;;5035643;28;92468;-77
2022/10/29 07:59:32;;;;;;;1.50;1.40;;;;;;;;;;5038734;28;93585;-77
2022/10/29 08:01:59;;;;;;;1.60;1.50;;;;;;;;;;5035898;28;93396;-77
2022/10/29 08:04:25;;;;;;;1.73;1.40;;;;;;;;;;5035350;28;92677;-77
2022/10/29 08:06:51;;;;;;;1.85;1.40;;;;;;;;;;5035046;28;92432;-77
2022/10/29 08:09:18;;;;;;;1.80;1.40;;;;;;;;;;5035222;28;93074;-77
2022/10/29 08:11:44;;;;;;;2.13;1.60;;;;;;;;;;5033304;28;95839;-77
2022/10/29 08:14:15;;;;;;;1.95;1.65;;;;;;;;;;5035332;28;92461;-77
2022/10/29 08:16:45;;;;;;;2.13;1.25;;;;;;;;;;5017935;28;93487;-77
2022/10/29 08:19:11;;;;;;;1.90;1.55;;;;;;;;;;5038264;27;93414;-77
2022/10/29 08:21:38;;;;;;;2.28;1.40;;;;;;;;;;5035564;28;97078;-77
2022/10/29 08:24:04;;;;;;;1.67;1.55;;;;;;;;;;5034784;28;93400;-77
2022/10/29 08:26:32;;;;;;;1.40;1.30;;;;;;;;;;5035774;28;92400;-77
2022/10/29 08:28:58;;;;;;;1.70;1.40;;;;;;;;;;5035617;28;93008;-77
2022/10/29 08:31:24;;;;;;;1.48;1.30;;;;;;;;;;5035166;28;93774;-77
2022/10/29 08:33:50;;;;;;;2.75;1.70;;;;;;;;;;5017962;28;92387;-77
2022/10/29 08:36:17;;;;;;;2.17;1.50;;;;;;;;;;5033561;28;94782;-77
2022/10/29 08:38:45;;;;;;;1.38;1.27;;;;;;;;;;5034711;28;93262;-77
2022/10/29 08:41:11;;;;;;;1.73;1.63;;;;;;;;;;5038087;28;92456;-77
2022/10/29 08:43:56;;;;;;;2.75;1.60;;;;;;;;;;5035031;28;94002;-77
2022/10/29 08:46:28;;;;;;;1.85;1.20;;;;;;;;;;5034751;28;92392;-77
2022/10/29 08:49:00;;;;;;;1.48;1.38;;;;;;;;;;5034842;28;93232;-77
2022/10/29 08:51:34;;;;;;;1.98;1.63;;;;;;;;;;5035061;28;94401;-77
2022/10/29 08:54:01;;;;;;;3.05;1.50;;;;;;;;;;5035149;28;91671;-77
2022/10/29 08:56:49;;;;;;;2.65;1.40;;;;;;;;;;5020153;28;92419;-77
2022/10/29 08:59:17;;;;;;;1.60;1.50;;;;;;;;;;5034975;28;94450;-77
2022/10/29 09:01:43;;;;;;;2.88;1.83;;;;;;;;;;5032851;28;94889;-77
2022/10/29 09:04:24;;;;;;;2.92;1.33;;;;;;;;;;5019502;28;95681;-77
2022/10/29 09:06:53;;;;;;;1.88;1.42;;;;;;;;;;5034435;28;92487;-77
2022/10/29 09:09:19;;;;;;;1.77;1.58;;;;;;;;;;5034578;28;93738;-77
2022/10/29 09:11:59;;;;;;;3.25;1.77;;;;;;;;;;5034312;28;93419;-77
2022/10/29 09:14:50;;;;;;;1.45;1.35;;;;;;;;;;5034603;28;92423;-77
2022/10/29 09:17:22;;;;;;;2.65;1.55;;;;;;;;;;5034108;28;93137;-77
2022/10/29 09:20:01;;;;;;;2.05;1.83;;;;;;;;;;5034711;28;92719;-77
2022/10/29 09:22:31;;;;;;;1.40;1.30;;;;;;;;;;5034557;28;92465;-77
2022/10/29 09:24:57;;;;;;;;;;;;;;;;;;5034701;28;93142;-77
2022/10/29 09:27:32;;;;;;;2.85;1.75;;;;;;;;;;5036022;28;126058;-77
2022/10/29 09:30:04;;;;;;;2.05;1.60;;;;;;;;;;5035690;27;95503;-77
2022/10/29 09:32:36;;;;;;;2.00;1.77;;;;;;;;;;5037961;28;93396;-77
2022/10/29 09:35:13;;;;;;;1.60;1.50;;;;;;;;;;5037854;28;92461;-77
2022/10/29 09:37:52;;;;;;;4.15;1.52;;;;;;;;;;5038335;28;94289;-77
2022/10/29 09:40:30;;;;;;;3.30;2.28;;;;;;;;;;5037816;28;93491;-77
2022/10/29 09:42:57;;;;;;;1.63;1.52;;;;;;;;;;5020375;28;92504;-77
2022/10/29 09:45:29;;;;;;;3.50;1.75;;;;;;;;;;5037813;28;93005;-77
2022/10/29 09:48:08;;;;;;;2.15;1.75;;;;;;;;;;5037552;28;93401;-77
2022/10/29 09:50:40;;;;;;;2.50;1.73;;;;;;;;;;5040816;28;92408;-77
2022/10/29 09:53:09;;;;;;;2.22;1.50;;;;;;;;;;5035725;28;96035;-77
2022/10/29 09:55:43;;;;;;;1.92;1.80;;;;;;;;;;5037342;28;92481;-77
2022/10/29 09:58:20;;;;;;;2.13;1.90;;;;;;;;;;5019904;28;93103;-77
2022/10/29 10:00:46;;;;;;;4.47;1.85;;;;;;;;;;5037277;28;93224;-77
2022/10/29 10:03:28;;;;;;;7.10;2.10;;;;;;;;;;5037341;28;92787;-77
2022/10/29 10:05:59;;;;;;;3.38;1.80;;;;;;;;;;5037301;28;92395;-77
2022/10/29 10:08:25;;;;;;;1.75;1.52;;;;;;;;;;5037199;28;92350;-77
2022/10/29 10:10:53;;;;;;;2.20;1.95;;;;;;;;;;5019694;28;91714;-77
2022/10/29 10:13:21;;;;;;;1.40;1.30;;;;;;;;;;5040474;28;94893;-77
2022/10/29 10:15:53;;;;;;;2.78;1.83;;;;;;;;;;5037029;28;92439;-77
2022/10/29 10:18:21;;;;;;;2.92;1.98;;;;;;;;;;5035842;28;94874;-77
2022/10/29 10:20:59;;;;;;;1.75;1.58;;;;;;;;;;5036577;28;93825;-77
2022/10/29 10:23:27;;;;;;;2.13;1.80;;;;;;;;;;5037724;28;92542;-77
2022/10/29 10:25:54;;;;;;;2.53;2.03;;;;;;;;;;5019396;28;93138;-77
2022/10/29 10:28:30;;;;;;;2.38;1.88;;;;;;;;;;5020352;28;93854;-77
2022/10/29 10:31:02;;;;;;;3.63;1.90;;;;;;;;;;5019655;28;92450;-77
2022/10/29 10:33:29;;;;;;;3.75;1.80;;;;;;;;;;5040391;28;93573;-77
2022/10/29 10:35:59;;;;;;;2.50;2.00;;;;;;;;;;5037495;28;91758;-77
2022/10/29 10:38:26;;;;;;;3.65;1.70;;;;;;;;;;5037380;28;93341;-77
2022/10/29 10:40:59;;;;;;;2.45;1.67;;;;;;;;;;5035684;27;93510;-77
2022/10/29 10:43:26;;;;;;;3.90;1.90;;;;;;;;;;5035458;28;94907;-77
2022/10/29 10:45:57;;;;;;;2.35;1.70;;;;;;;;;;5036302;28;97019;-77
2022/10/29 10:48:26;;;;;;;2.15;1.60;;;;;;;;;;5036125;28;93443;-77
2022/10/29 10:51:14;;;;;;;4.20;2.00;;;;;;;;;;5036538;28;93216;-77
2022/10/29 10:53:40;;;;;;;2.33;1.60;;;;;;;;;;5036858;28;93135;-77
2022/10/29 10:56:15;;;;;;;3.17;2.03;;;;;;;;;;5039409;28;93393;-77
2022/10/29 10:58:43;;;;;;;4.45;2.08;;;;;;;;;;5036711;28;93603;-77
2022/10/29 11:01:12;;;;;;;2.28;1.60;;;;;;;;;;5019190;28;92698;-77
2022/10/29 11:03:50;;;;;;;3.17;1.90;;;;;;;;;;5018414;28;92842;-78
2022/10/29 11:06:22;;;;;;;3.33;2.17;;;;;;;;;;5036263;28;93083;-77
2022/10/29 11:08:51;;;;;;;3.10;2.22;;;;;;;;;;5034795;28;97056;-77
2022/10/29 11:11:27;;;;;;;3.33;1.73;;;;;;;;;;5036491;28;92484;-77
2022/10/29 11:13:57;;;;;;;2.08;1.70;;;;;;;;;;5018560;28;93018;-77
2022/10/29 11:16:36;;;;;;;3.35;1.95;;;;;;;;;;5035882;28;93167;-77
2022/10/29 11:19:11;;;;;;;3.25;2.08;;;;;;;;;;5021516;28;92551;-77
2022/10/29 11:21:42;;;;;;;2.08;1.67;;;;;;;;;;5036365;28;93642;-77
2022/10/29 11:24:11;;;;;;;2.55;1.73;;;;;;;;;;5036449;28;92474;-77
2022/10/29 11:26:43;;;;;;;1.77;1.65;;;;;;;;;;5037098;28;92894;-77
2022/10/29 11:29:38;;;;;;;2.22;1.92;;;;;;;;;;5036052;28;93475;-77
2022/10/29 11:32:09;;;;;;;2.47;1.65;;;;;;;;;;5013865;28;92484;-77
2022/10/29 11:34:56;;;;;;;3.35;1.67;;;;;;;;;;5035217;28;94844;-77
2022/10/29 11:37:28;;;;;;;3.15;2.05;;;;;;;;;;5036130;28;94566;-77
2022/10/29 11:39:57;;;;;;;4.80;1.90;;;;;;;;;;5036031;28;92525;-77
2022/10/29 11:42:24;;;;;;;4.65;2.10;;;;;;;;;;5039093;28;93632;-77
2022/10/29 11:44:50;;;;;;;4.13;2.25;;;;;;;;;;5035978;28;92485;-77
2022/10/29 11:47:19;;;;;;;2.60;2.00;;;;;;;;;;5017701;28;93119;-77
2022/10/29 11:49:58;;;;;;;3.80;2.10;;;;;;;;;;5036396;28;93909;-77
2022/10/29 11:52:42;;;;;;;2.38;1.77;;;;;;;;;;5035600;28;91700;-77
2022/10/29 11:55:22;;;;;;;3.05;1.85;;;;;;;;;;5035817;28;93014;-77
2022/10/29 11:57:54;;;;;;;2.97;1.67;;;;;;;;;;5017370;28;93422;-77
2022/10/29 12:00:22;;;;;;;2.58;1.98;;;;;;;;;;5016329;28;94915;-77
2022/10/29 12:02:57;;;;;;;4.78;2.00;;;;;;;;;;5035182;28;95502;-77
2022/10/29 12:05:27;;;;;;;3.53;2.08;;;;;;;;;;5038172;28;93186;-77
2022/10/29 12:07:59;;;;;;;2.65;1.75;;;;;;;;;;5035104;28;93241;-77
2022/10/29 12:10:49;;;;;;;3.72;2.03;;;;;;;;;;5017595;28;93462;-77
2022/10/29 12:13:21;;;;;;;2.87;1.90;;;;;;;;;;4953637;28;92492;-77
2022/10/29 12:15:47;;;;;;;2.35;2.00;;;;;;;;;;4953579;28;93136;-77
2022/10/29 12:18:21;;;;;;;5.15;2.22;;;;;;;;;;4953370;28;93192;-77
2022/10/29 12:20:48;;;;;;;3.15;2.15;;;;;;;;;;4946757;28;92600;-77
2022/10/29 12:23:24;;;;;;;4.20;1.90;;;;;;;;;;4953580;28;93160;-77
2022/10/29 12:26:07;;;;;;;5.03;1.85;;;;;;;;;;4936433;28;96598;-77
2022/10/29 12:28:41;;;;;;;3.35;1.77;;;;;;;;;;4956400;28;92468;-77
2022/10/29 12:31:27;;;;;;;8.88;2.25;;;;;;;;;;4953316;28;94666;-77
2022/10/29 12:34:02;;;;;;;2.45;2.00;;;;;;;;;;4953912;28;92409;-77
2022/10/29 12:36:40;;;;;;;3.22;2.03;;;;;;;;;;4953363;28;93546;-78
2022/10/29 12:39:36;;;;;;;2.05;1.90;;;;;;;;;;4953490;28;94423;-77
2022/10/29 12:42:06;;;;;;;3.10;1.85;;;;;;;;;;4936560;28;92623;-77
2022/10/29 12:44:36;;;;;;;3.15;1.90;;;;;;;;;;4953592;28;91879;-77
2022/10/29 12:47:15;;;;;;;4.07;2.17;;;;;;;;;;4937271;28;93981;-77
2022/10/29 12:49:42;;;;;;;3.22;2.00;;;;;;;;;;4970410;28;92451;-77
2022/10/29 12:52:08;;;;;;;3.33;2.00;;;;;;;;;;5013372;28;98085;-77
2022/10/29 12:54:37;;;;;;;2.30;2.10;;;;;;;;;;4997083;28;92508;-77
2022/10/29 12:57:04;;;;;;;1.65;1.52;;;;;;;;;;5014898;28;94249;-77
2022/10/29 12:59:35;;;;;;;4.38;2.05;;;;;;;;;;5014568;28;93414;-77
2022/10/29 13:02:20;;;;;;;4.22;2.30;;;;;;;;;;4997347;28;92532;-77
2022/10/29 13:05:04;;;;;;;7.13;2.55;;;;;;;;;;5013686;28;93331;-78
2022/10/29 13:07:31;;;;;;;5.03;2.30;;;;;;;;;;4996238;28;93647;-77
2022/10/29 13:10:17;;;;;;;2.28;1.92;;;;;;;;;;4997606;28;92050;-77
2022/10/29 13:12:52;;;;;;;3.72;2.42;;;;;;;;;;5000322;28;92609;-77
2022/10/29 13:15:20;;;;;;;2.40;1.98;;;;;;;;;;5017494;28;92503;-77
2022/10/29 13:17:47;;;;;;;2.45;1.73;;;;;;;;;;5015238;28;94846;-77
2022/10/29 13:20:13;;;;;;;3.13;2.45;;;;;;;;;;5034584;28;95543;-77
2022/10/29 13:22:45;;;;;;;4.65;2.20;;;;;;;;;;5034845;28;92497;-77
2022/10/29 13:25:30;;;;;;;2.47;2.20;;;;;;;;;;5034722;28;93089;-77
2022/10/29 13:27:56;;;;;;;4.18;2.30;;;;;;;;;;5034302;28;92449;-77
2022/10/29 13:30:26;;;;;;;2.95;2.20;;;;;;;;;;5034225;28;92406;-77
2022/10/29 13:32:54;;;;;;;2.72;2.10;;;;;;;;;;5034174;28;93467;-77
2022/10/29 13:35:21;;;;;;;4.03;2.28;;;;;;;;;;5038010;28;92839;-77
2022/10/29 13:37:47;;;;;;;5.05;2.10;;;;;;;;;;5034232;28;93146;-77
2022/10/29 13:40:32;;;;;;;3.53;2.30;;;;;;;;;;5016463;28;94485;-77
2022/10/29 13:42:58;;;;;;;2.95;2.17;;;;;;;;;;5032635;28;94819;-77
2022/10/29 13:45:25;;;;;;;3.25;2.08;;;;;;;;;;5033811;28;95510;-77
2022/10/29 13:47:55;;;;;;;3.65;2.10;;;;;;;;;;5016411;28;93439;-77
2022/10/29 13:50:21;;;;;;;;;;;;;;;;;;5034722;28;92428;-77
2022/10/29 13:52:50;;;;;;;3.30;1.95;;;;;;;;;;5035150;28;122664;-77
2022/10/29 13:55:18;;;;;;;4.07;2.30;;;;;;;;;;5033851;28;93381;-77
2022/10/29 13:57:50;;;;;;;4.03;2.55;;;;;;;;;;5037123;28;92424;-77
2022/10/29 14:00:18;;;;;;;2.90;2.35;;;;;;;;;;5034043;28;93010;-77
2022/10/29 14:02:53;;;;;;;3.08;2.20;;;;;;;;;;5033263;28;92572;-77
2022/10/29 14:05:22;;;;;;;4.53;2.10;;;;;;;;;;5034132;28;93112;-77
2022/10/29 14:08:07;;;;;;;2.67;2.13;;;;;;;;;;5031785;28;95860;-77
2022/10/29 14:10:34;;;;;;;2.85;1.88;;;;;;;;;;5034291;28;92406;-76
2022/10/29 14:13:12;;;;;;;3.72;2.28;;;;;;;;;;5033899;28;93111;-77
2022/10/29 14:15:57;;;;;;;6.65;2.03;;;;;;;;;;5034376;27;93354;-77
2022/10/29 14:18:24;;;;;;;2.53;1.95;;;;;;;;;;5036944;28;92450;-76
2022/10/29 14:20:54;;;;;;;3.67;2.10;;;;;;;;;;5039876;28;93468;-76
2022/10/29 14:23:21;;;;;;;4.75;2.65;;;;;;;;;;5037215;28;92437;-76
2022/10/29 14:25:54;;;;;;;2.00;1.77;;;;;;;;;;5037788;28;93115;-76
2022/10/29 14:28:30;;;;;;;3.33;2.40;;;;;;;;;;5036780;28;93364;-77
2022/10/29 14:31:13;;;;;;;3.78;1.90;;;;;;;;;;5019493;28;92558;-77
2022/10/29 14:33:43;;;;;;;5.03;2.05;;;;;;;;;;5035543;28;94831;-77
2022/10/29 14:36:10;;;;;;;;;;;;;;;;;;5019844;28;93908;-77
2022/10/29 14:38:40;;;;;;;3.28;2.40;;;;;;;;;;5037943;28;118512;-77
2022/10/29 14:41:07;;;;;;;3.08;2.35;;;;;;;;;;5040626;28;93074;-77
2022/10/29 14:43:34;;;;;;;3.50;2.00;;;;;;;;;;5036956;28;92465;-77
2022/10/29 14:46:32;;;;;;;4.32;2.30;;;;;;;;;;5036406;28;93428;-77
2022/10/29 14:49:04;;;;;;;5.22;2.25;;;;;;;;;;4985806;28;93445;-77
2022/10/29 14:51:34;;;;;;;5.97;2.33;;;;;;;;;;5037580;28;91732;-77
2022/10/29 14:54:01;;;;;;;4.05;2.40;;;;;;;;;;5036904;28;92416;-77
2022/10/29 14:56:32;;;;;;;5.00;2.17;;;;;;;;;;5036239;28;93460;-77
2022/10/29 14:59:00;;;;;;;3.05;2.00;;;;;;;;;;5035391;28;94930;-77
2022/10/29 15:01:26;;;;;;;3.97;2.20;;;;;;;;;;5019342;28;98092;-77